Riverdale, Michigan
Current Conditions -  °F | °C
As of 8:31 PM on Friday 19 Dec 2014 (Local Time) from KAMN Reporting Station
Clear Clear  
Wind Chill: 20°   Ceiling: Unl
Heat Index: 20°   Visibility: 10mi
Dew Point: 19°   Wind: 3mph
Humidity: 95%   Direction: 190°S
Pressure: 30.31"   Gusts: NA
Location:  43.39°N, 84.84°W
Report Text: KAMN 200131Z AUTO 19003KT 10SM CLR M07/M07 A3031 RMK AO2 T10661073
Loading
Personal Weather Stations






























Interactive Weather Map New forecast layout! Learn more

10-Day Weather Forecast

Advertisements
Track Severe Weather on mobile